Time;durP1;ratioP1;P1;durP2;ratioP2;P2;SDS_P1;SDS_P2;PMS_P1;PMS_P2;Temp;Humidity;BMP_temperature;BMP_pressure;BME280_temperature;BME280_humidity;BME280_pressure;Samples;Min_cycle;Max_cycle;Signal;HPM_P1;HPM_P2
2022/01/02 00:00:07;;;;;;;119.18;62.53;;;6.30;99.90;;;;;;5039918;28;20032;-77
2022/01/02 00:02:34;;;;;;;90.05;47.50;;;6.30;99.90;;;;;;5039716;28;20053;-77
2022/01/02 00:05:09;;;;;;;100.25;51.97;;;6.30;99.90;;;;;;5038566;28;20083;-77
2022/01/02 00:07:51;;;;;;;27.65;14.50;;;6.30;99.90;;;;;;5038381;28;20029;-77
2022/01/02 00:10:21;;;;;;;52.25;28.58;;;6.40;99.90;;;;;;5038536;28;20029;-77
2022/01/02 00:12:51;;;;;;;26.27;16.55;;;6.40;99.90;;;;;;5039718;28;20026;-77
2022/01/02 00:15:20;;;;;;;119.57;59.15;;;6.40;99.90;;;;;;5039681;28;20025;-77
2022/01/02 00:17:48;;;;;;;64.53;34.92;;;6.50;99.90;;;;;;5038277;28;20563;-77
2022/01/02 00:20:14;;;;;;;28.35;15.85;;;6.50;99.90;;;;;;5025698;28;20018;-76
2022/01/02 00:22:42;;;;;;;32.53;18.38;;;6.60;99.90;;;;;;5019934;28;20545;-77
2022/01/02 00:25:14;;;;;;;26.30;15.30;;;6.60;99.90;;;;;;5019532;28;20022;-77
2022/01/02 00:27:41;;;;;;;52.33;29.75;;;6.60;99.90;;;;;;5018334;28;20041;-77
2022/01/02 00:30:07;;;;;;;21.75;13.23;;;6.60;99.90;;;;;;5018521;28;20584;-77
2022/01/02 00:32:37;;;;;;;32.35;18.73;;;6.70;99.90;;;;;;5019498;28;20029;-77
2022/01/02 00:35:04;;;;;;;26.85;16.23;;;6.70;99.90;;;;;;5018015;28;20030;-77
2022/01/02 00:37:29;;;;;;;129.73;72.68;;;6.70;99.90;;;;;;5019577;28;20061;-77
2022/01/02 00:39:55;;;;;;;51.13;29.63;;;6.70;99.90;;;;;;5019272;28;20018;-77
2022/01/02 00:42:31;;;;;;;61.20;37.30;;;6.70;99.90;;;;;;5019424;28;20036;-77
2022/01/02 00:45:00;;;;;;;25.30;14.38;;;6.70;99.90;;;;;;5019320;28;20026;-77
2022/01/02 00:47:58;;;;;;;21.85;14.15;;;6.70;99.90;;;;;;5019191;28;20109;-77
2022/01/02 00:50:42;;;;;;;36.17;19.73;;;6.70;99.90;;;;;;5017693;28;20062;-77
2022/01/02 00:53:10;;;;;;;19.02;11.02;;;6.80;99.90;;;;;;5019068;28;20029;-77
2022/01/02 00:55:36;;;;;;;34.85;20.70;;;6.80;99.90;;;;;;5017955;28;20022;-77
2022/01/02 00:58:12;;;;;;;57.70;27.00;;;6.80;99.90;;;;;;5018908;28;20401;-77
2022/01/02 01:00:48;;;;;;;81.78;35.28;;;6.80;99.90;;;;;;5017734;28;20029;-77
2022/01/02 01:03:23;;;;;;;17.02;10.27;;;6.90;99.90;;;;;;5018898;28;20057;-77
2022/01/02 01:05:53;;;;;;;87.78;43.85;;;6.90;99.90;;;;;;5017857;28;20017;-77
2022/01/02 01:08:21;;;;;;;35.58;14.18;;;6.90;99.90;;;;;;5017568;28;20050;-77
2022/01/02 01:10:47;;;;;;;17.05;9.60;;;7.00;99.90;;;;;;5018675;28;20045;-77
2022/01/02 01:13:14;;;;;;;17.65;11.38;;;7.00;99.90;;;;;;5017470;28;20053;-77
2022/01/02 01:15:40;;;;;;;19.40;10.93;;;7.00;99.90;;;;;;5018858;28;20435;-77
2022/01/02 01:18:06;;;;;;;22.55;13.10;;;7.10;99.90;;;;;;5018716;28;20036;-77
2022/01/02 01:20:40;;;;;;;26.55;15.35;;;7.10;99.90;;;;;;5018511;28;20029;-77
2022/01/02 01:23:07;;;;;;;20.92;11.55;;;7.10;99.90;;;;;;5018814;28;20390;-78
2022/01/02 01:25:35;;;;;;;68.82;30.35;;;7.10;99.90;;;;;;5035230;28;20022;-78
2022/01/02 01:28:01;;;;;;;33.00;16.77;;;7.20;99.90;;;;;;5038326;28;20075;-78
2022/01/02 01:30:28;;;;;;;40.05;19.35;;;7.20;99.90;;;;;;5038262;28;20025;-77
2022/01/02 01:32:54;;;;;;;19.65;12.45;;;7.20;99.90;;;;;;5038184;28;20036;-77
2022/01/02 01:35:21;;;;;;;36.72;19.30;;;7.30;99.90;;;;;;5030581;28;20034;-77
2022/01/02 01:37:47;;;;;;;27.40;15.35;;;7.30;99.90;;;;;;5018667;28;20021;-78
2022/01/02 01:40:14;;;;;;;37.95;23.30;;;7.30;99.90;;;;;;5017903;28;20029;-77
2022/01/02 01:42:43;;;;;;;36.75;24.45;;;7.30;99.90;;;;;;5017213;28;20474;-77
2022/01/02 01:48:08;;;;;;;18.98;10.65;;;7.40;99.90;;;;;;5017940;28;20030;-77
2022/01/02 01:50:40;;;;;;;18.15;10.15;;;7.40;99.90;;;;;;5018438;28;20018;-78
2022/01/02 01:53:08;;;;;;;18.48;10.10;;;7.40;99.90;;;;;;5018028;28;20058;-78
2022/01/02 01:55:36;;;;;;;22.95;12.40;;;7.50;99.90;;;;;;5018130;28;20018;-77
2022/01/02 01:58:04;;;;;;;19.40;11.93;;;7.50;99.90;;;;;;5017743;28;20022;-77
2022/01/02 02:00:33;;;;;;;17.23;10.07;;;7.50;99.90;;;;;;5017997;28;20025;-78
2022/01/02 02:02:58;;;;;;;19.45;11.27;;;7.40;99.90;;;;;;5017605;28;20103;-78
2022/01/02 02:05:24;;;;;;;22.60;10.02;;;7.50;99.90;;;;;;5018099;28;20058;-77
2022/01/02 02:07:50;;;;;;;16.17;10.35;;;7.50;99.90;;;;;;5017724;28;20042;-77
2022/01/02 02:10:34;;;;;;;16.50;10.45;;;7.50;99.90;;;;;;5017849;28;20038;-77
2022/01/02 02:13:02;;;;;;;13.27;10.15;;;7.50;99.90;;;;;;5016515;28;20037;-77
2022/01/02 02:15:28;;;;;;;16.90;10.18;;;7.50;99.90;;;;;;5017723;28;20053;-78
2022/01/02 02:17:54;;;;;;;19.33;10.23;;;7.60;99.90;;;;;;5016666;28;20033;-77
2022/01/02 02:20:22;;;;;;;14.05;9.60;;;7.60;99.90;;;;;;5017681;28;20041;-77
2022/01/02 02:22:53;;;;;;;16.25;10.65;;;7.60;99.90;;;;;;5017817;28;20101;-78
2022/01/02 02:25:21;;;;;;;;;;;7.60;99.90;;;;;;5016688;28;20425;-77
2022/01/02 02:27:49;;;;;;;15.63;10.15;;;7.60;99.90;;;;;;5017641;28;19912;-77
2022/01/02 02:30:14;;;;;;;18.35;10.65;;;7.60;99.90;;;;;;5017510;28;20032;-78
2022/01/02 02:32:40;;;;;;;18.70;10.25;;;7.60;99.90;;;;;;5017434;28;20022;-77
2022/01/02 02:35:06;;;;;;;16.42;10.65;;;7.60;99.90;;;;;;5017358;28;20084;-77
2022/01/02 02:37:32;;;;;;;18.95;11.00;;;7.60;99.90;;;;;;5017624;28;20024;-77
2022/01/02 02:39:58;;;;;;;16.38;10.23;;;7.60;99.90;;;;;;5017257;28;20026;-78
2022/01/02 02:42:39;;;;;;;21.83;11.32;;;7.70;99.90;;;;;;5017458;28;20033;-77
2022/01/02 02:50:47;;;;;;;24.35;11.63;;;7.70;99.90;;;;;;5017738;28;20113;-77
2022/01/02 02:53:16;;;;;;;25.52;12.43;;;7.70;99.90;;;;;;5018634;28;20033;-78
2022/01/02 02:55:46;;;;;;;25.10;12.32;;;7.70;99.90;;;;;;5020088;28;20072;-77
2022/01/02 02:58:55;;;;;;;25.17;12.50;;;7.80;99.90;;;;;;5019897;28;20026;-77
2022/01/02 03:01:02;;;;;;;19.92;11.82;;;7.80;99.90;;;;;;5023138;28;20443;-77
2022/01/02 03:03:28;;;;;;;20.50;11.20;;;7.80;99.90;;;;;;5019688;28;20040;-77
2022/01/02 03:05:54;;;;;;;20.70;12.05;;;7.80;99.90;;;;;;5019863;28;20025;-77
2022/01/02 03:08:20;;;;;;;22.10;11.65;;;7.80;99.90;;;;;;5019992;28;20050;-77
2022/01/02 03:10:46;;;;;;;26.58;12.70;;;7.80;99.90;;;;;;5021125;28;20014;-77
2022/01/02 03:13:11;;;;;;;22.08;12.98;;;7.80;99.90;;;;;;5020078;28;20033;-77
2022/01/02 03:15:37;;;;;;;31.17;13.93;;;7.80;99.90;;;;;;5020893;28;20029;-77
2022/01/02 03:18:03;;;;;;;29.05;13.50;;;7.80;99.90;;;;;;5019500;28;20105;-77
2022/01/02 03:20:29;;;;;;;27.00;14.30;;;7.80;99.90;;;;;;5018861;28;20049;-77
2022/01/02 03:22:55;;;;;;;25.17;12.77;;;7.80;99.90;;;;;;5021121;28;20535;-77
2022/01/02 03:25:21;;;;;;;27.63;14.05;;;7.80;99.90;;;;;;5020860;28;20025;-77
2022/01/02 03:27:47;;;;;;;23.00;13.35;;;7.80;99.90;;;;;;5020968;28;20057;-78
2022/01/02 03:30:13;;;;;;;30.30;15.30;;;7.80;99.90;;;;;;5020836;28;20052;-78
2022/01/02 03:32:39;;;;;;;29.48;14.18;;;7.80;99.90;;;;;;5019195;28;20371;-79
2022/01/02 03:35:05;;;;;;;25.15;13.25;;;7.80;99.90;;;;;;5019208;28;20037;-78
2022/01/02 03:37:33;;;;;;;26.20;14.32;;;7.80;99.90;;;;;;5020788;28;20033;-77
2022/01/02 03:40:00;;;;;;;31.42;14.40;;;7.80;99.90;;;;;;5020354;28;20018;-78
2022/01/02 03:42:26;;;;;;;37.28;15.77;;;7.80;99.90;;;;;;5020583;28;20022;-78
2022/01/02 03:44:52;;;;;;;30.13;16.08;;;7.80;99.90;;;;;;5020462;28;20018;-77
2022/01/02 03:47:18;;;;;;;35.15;16.25;;;7.80;99.90;;;;;;5019046;28;20049;-78
2022/01/02 03:49:43;;;;;;;36.78;17.20;;;7.80;99.90;;;;;;5020324;28;20101;-78
2022/01/02 03:52:09;;;;;;;35.05;18.05;;;7.80;99.90;;;;;;5020443;28;20089;-78
2022/01/02 03:54:35;;;;;;;35.35;17.20;;;7.80;99.90;;;;;;5020204;28;20022;-78
2022/01/02 03:57:01;;;;;;;33.50;16.20;;;7.90;99.90;;;;;;5020365;28;20048;-78
2022/01/02 03:59:27;;;;;;;39.72;17.58;;;7.80;99.90;;;;;;5020166;28;20429;-77
2022/01/02 04:01:53;;;;;;;37.50;17.80;;;7.80;99.90;;;;;;5018958;28;20030;-78
2022/01/02 04:04:18;;;;;;;38.45;18.17;;;7.90;99.90;;;;;;5019770;28;20018;-78
2022/01/02 04:06:44;;;;;;;35.90;16.92;;;7.90;99.90;;;;;;5020056;28;20041;-78
2022/01/02 04:09:10;;;;;;;38.95;19.05;;;7.80;99.90;;;;;;5018625;28;20041;-77
2022/01/02 04:11:36;;;;;;;35.53;18.02;;;7.90;99.90;;;;;;5018659;28;20030;-78
2022/01/02 04:14:03;;;;;;;35.90;19.17;;;7.90;99.90;;;;;;5020042;28;20125;-78
2022/01/02 04:16:28;;;;;;;41.80;17.92;;;7.90;99.90;;;;;;5019862;28;20052;-77
2022/01/02 04:18:54;;;;;;;33.70;16.55;;;7.90;99.90;;;;;;5018200;28;20026;-78
2022/01/02 04:21:20;;;;;;;40.58;19.17;;;7.90;99.90;;;;;;5019889;28;20092;-78
2022/01/02 04:23:45;;;;;;;36.45;18.13;;;7.90;99.90;;;;;;5019692;28;21480;-77
2022/01/02 04:26:11;;;;;;;42.08;20.35;;;7.90;99.90;;;;;;5019823;28;20026;-78
2022/01/02 04:28:37;;;;;;;49.35;19.38;;;7.90;99.90;;;;;;5019456;28;20026;-77
2022/01/02 04:31:03;;;;;;;48.35;20.08;;;7.90;99.90;;;;;;5019719;28;20022;-77
2022/01/02 04:33:28;;;;;;;39.40;19.88;;;7.90;99.90;;;;;;5019535;28;20492;-77
2022/01/02 04:35:54;;;;;;;37.63;19.83;;;7.90;99.90;;;;;;5019503;28;20017;-78
2022/01/02 04:38:20;;;;;;;40.17;20.50;;;7.90;99.90;;;;;;5019608;28;20034;-78
2022/01/02 04:40:48;;;;;;;38.40;19.40;;;8.00;99.90;;;;;;5019645;28;20490;-78
2022/01/02 04:43:14;;;;;;;45.65;22.30;;;7.90;99.90;;;;;;5019330;28;20064;-78
2022/01/02 04:45:40;;;;;;;50.10;21.70;;;7.90;99.90;;;;;;5019491;28;20018;-77
2022/01/02 04:48:05;;;;;;;47.60;22.83;;;7.90;99.90;;;;;;5019058;28;20029;-78
2022/01/02 04:50:31;;;;;;;46.80;22.90;;;7.90;99.90;;;;;;5018078;28;20075;-78
2022/01/02 04:52:57;;;;;;;53.70;23.30;;;7.90;99.90;;;;;;5018047;28;20041;-78
2022/01/02 04:55:23;;;;;;;51.45;23.63;;;7.90;99.90;;;;;;5019391;28;20504;-77
2022/01/02 04:57:49;;;;;;;50.78;25.02;;;7.90;99.90;;;;;;5019038;28;20030;-78
2022/01/02 05:00:15;;;;;;;54.95;23.52;;;7.90;99.90;;;;;;5019277;28;20444;-77
2022/01/02 05:02:40;;;;;;;41.90;22.38;;;7.90;99.90;;;;;;5018692;28;20084;-77
2022/01/02 05:05:07;;;;;;;49.33;25.25;;;7.90;99.90;;;;;;5019156;28;20028;-77
2022/01/02 05:07:32;;;;;;;51.85;23.77;;;7.90;99.90;;;;;;5018671;28;20030;-77
2022/01/02 05:09:59;;;;;;;52.03;25.92;;;7.90;99.90;;;;;;5019116;28;20029;-77
2022/01/02 05:12:25;;;;;;;52.88;26.58;;;7.90;99.90;;;;;;5018680;28;20026;-77
2022/01/02 05:14:51;;;;;;;53.55;27.38;;;7.90;99.90;;;;;;5018325;28;20030;-77
2022/01/02 05:17:17;;;;;;;53.55;26.02;;;7.90;99.90;;;;;;5018441;28;20033;-77
2022/01/02 05:19:42;;;;;;;57.05;30.85;;;7.90;99.90;;;;;;5018613;28;20029;-77
2022/01/02 05:22:08;;;;;;;49.97;26.42;;;7.90;99.90;;;;;;5018588;28;20125;-77
2022/01/02 05:24:34;;;;;;;54.50;28.15;;;7.90;99.90;;;;;;5018714;28;20061;-77
2022/01/02 05:27:00;;;;;;;57.10;30.00;;;7.90;99.90;;;;;;5018506;28;20025;-77
2022/01/02 05:29:26;;;;;;;58.33;30.13;;;7.90;99.90;;;;;;5018505;28;20026;-77
2022/01/02 05:31:51;;;;;;;60.53;31.10;;;7.90;99.90;;;;;;5016762;28;20076;-77
2022/01/02 05:34:17;;;;;;;61.38;31.23;;;7.90;99.90;;;;;;5018258;28;20026;-77
2022/01/02 05:36:48;;;;;;;63.83;32.30;;;7.90;99.90;;;;;;5018212;28;20112;-77
2022/01/02 05:39:15;;;;;;;;;;;7.80;99.90;;;;;;5018918;28;20105;-77
2022/01/02 05:41:41;;;;;;;59.50;28.60;;;7.90;99.90;;;;;;5018099;28;20377;-77
2022/01/02 05:44:06;;;;;;;55.20;30.13;;;7.90;99.90;;;;;;5018401;28;20037;-77
2022/01/02 05:46:32;;;;;;;58.75;32.85;;;7.90;99.90;;;;;;5018393;28;20398;-78
2022/01/02 05:48:58;;;;;;;60.47;30.63;;;7.90;99.90;;;;;;5018070;28;20037;-77
2022/01/02 05:51:24;;;;;;;62.50;31.88;;;7.90;99.90;;;;;;5018150;28;20105;-77
2022/01/02 05:53:49;;;;;;;60.55;33.17;;;7.90;99.90;;;;;;5017876;28;20212;-77
2022/01/02 05:56:15;;;;;;;63.95;32.72;;;7.90;99.90;;;;;;5016770;28;20112;-77
2022/01/02 05:58:41;;;;;;;59.15;33.80;;;7.90;99.90;;;;;;5017919;28;20028;-77
2022/01/02 06:01:07;;;;;;;61.25;33.78;;;7.90;99.90;;;;;;5017935;28;20380;-77
2022/01/02 06:03:33;;;;;;;57.83;31.88;;;7.90;99.90;;;;;;5016460;28;20052;-77
2022/01/02 06:05:58;;;;;;;62.83;32.03;;;7.90;99.90;;;;;;5017892;28;20045;-77
2022/01/02 06:08:24;;;;;;;58.75;33.38;;;7.90;99.90;;;;;;5017875;28;20050;-77
2022/01/02 06:10:50;;;;;;;51.38;28.70;;;7.90;99.90;;;;;;5013047;28;20029;-77
2022/01/02 06:13:16;;;;;;;61.10;32.03;;;7.90;99.90;;;;;;5017917;28;20030;-77
2022/01/02 06:15:41;;;;;;;62.42;32.90;;;7.90;99.90;;;;;;5016436;28;20025;-77
2022/01/02 06:18:07;;;;;;;62.60;30.65;;;7.80;99.90;;;;;;5017625;28;20030;-77
2022/01/02 06:20:33;;;;;;;64.20;34.10;;;7.90;99.90;;;;;;5016219;28;20036;-77
2022/01/02 06:22:59;;;;;;;60.38;33.50;;;7.90;99.90;;;;;;5016408;28;20080;-76
2022/01/02 06:25:25;;;;;;;58.53;31.50;;;7.90;99.90;;;;;;5016292;28;20029;-77
2022/01/02 06:27:51;;;;;;;64.80;35.58;;;7.90;99.90;;;;;;5026254;28;20030;-77
2022/01/02 06:30:17;;;;;;;56.65;31.38;;;7.90;99.90;;;;;;5037169;28;20397;-77
2022/01/02 06:32:44;;;;;;;63.30;32.10;;;7.90;99.90;;;;;;5037069;28;20072;-76
2022/01/02 06:35:10;;;;;;;58.30;31.80;;;7.90;99.90;;;;;;5030080;28;20030;-77
2022/01/02 06:37:36;;;;;;;60.75;33.60;;;7.90;99.90;;;;;;5017787;28;20029;-77
2022/01/02 06:40:04;;;;;;;54.92;32.00;;;7.90;99.90;;;;;;5017336;28;20026;-77
2022/01/02 06:42:29;;;;;;;52.42;31.27;;;7.90;99.90;;;;;;5017654;28;20022;-77
2022/01/02 06:44:55;;;;;;;54.92;30.38;;;7.90;99.90;;;;;;5016042;28;20117;-77
2022/01/02 06:47:21;;;;;;;54.97;31.58;;;7.90;99.90;;;;;;5017310;28;20022;-77
2022/01/02 06:49:46;;;;;;;57.25;31.67;;;7.90;99.90;;;;;;5017300;28;20398;-77
2022/01/02 06:52:12;;;;;;;57.78;32.97;;;7.90;99.90;;;;;;5017586;28;20033;-77
2022/01/02 06:54:38;;;;;;;59.80;32.28;;;7.80;99.90;;;;;;5017228;28;20038;-77
2022/01/02 06:57:04;;;;;;;65.65;34.22;;;7.80;99.90;;;;;;5017318;28;20125;-77
2022/01/02 06:59:31;;;;;;;58.78;32.67;;;7.80;99.90;;;;;;5017169;28;20034;-77
2022/01/02 07:01:57;;;;;;;65.32;34.45;;;7.80;99.90;;;;;;5017183;28;20054;-78
2022/01/02 07:04:22;;;;;;;64.50;34.05;;;7.70;99.90;;;;;;5017308;28;20026;-77
2022/01/02 07:06:48;;;;;;;63.60;34.80;;;7.70;99.90;;;;;;5017043;28;20090;-77
2022/01/02 07:09:14;;;;;;;331.17;200.82;;;7.70;99.90;;;;;;5017037;28;20054;-75
2022/01/02 07:11:39;;;;;;;126.20;67.88;;;7.70;99.90;;;;;;5017004;28;20076;-75
2022/01/02 07:14:05;;;;;;;85.50;46.35;;;7.70;99.90;;;;;;5015629;28;20061;-75
2022/01/02 07:16:31;;;;;;;69.60;36.47;;;7.70;99.90;;;;;;5003247;28;20026;-75
2022/01/02 07:18:57;;;;;;;207.32;116.13;;;7.70;99.90;;;;;;5001263;28;20030;-76
2022/01/02 07:21:23;;;;;;;108.05;58.80;;;7.70;99.90;;;;;;5012363;28;20049;-76
2022/01/02 07:23:48;;;;;;;143.98;79.50;;;7.80;99.90;;;;;;5013261;28;20033;-75
2022/01/02 07:26:19;;;;;;;60.47;32.97;;;7.80;99.90;;;;;;5015154;28;20029;-76
2022/01/02 07:28:44;;;;;;;71.32;38.03;;;7.80;99.90;;;;;;5016911;28;20105;-75
2022/01/02 07:31:10;;;;;;;58.42;32.72;;;7.80;99.90;;;;;;5015734;28;20067;-76
2022/01/02 07:33:36;;;;;;;60.13;31.95;;;7.80;99.90;;;;;;5015312;28;20076;-75
2022/01/02 07:36:05;;;;;;;88.70;46.47;;;7.80;99.90;;;;;;5014683;28;20033;-76
2022/01/02 07:38:33;;;;;;;270.30;130.25;;;7.80;99.90;;;;;;5015813;28;20030;-75
2022/01/02 07:40:59;;;;;;;66.60;38.58;;;7.80;99.90;;;;;;5019259;28;20512;-76
2022/01/02 07:43:25;;;;;;;56.78;30.83;;;7.80;99.90;;;;;;5020304;28;20021;-75
2022/01/02 07:45:51;;;;;;;55.97;33.13;;;7.80;99.90;;;;;;5020546;28;20022;-76
2022/01/02 07:48:16;;;;;;;55.97;31.00;;;7.80;99.90;;;;;;5020172;28;20029;-75
2022/01/02 07:50:42;;;;;;;55.60;29.98;;;7.80;99.90;;;;;;5010874;28;20026;-75
2022/01/02 07:53:08;;;;;;;57.13;32.58;;;7.80;99.90;;;;;;5018155;28;20507;-75
2022/01/02 07:55:34;;;;;;;62.03;32.35;;;7.90;99.90;;;;;;5019313;28;20057;-75
2022/01/02 07:58:00;;;;;;;58.88;32.25;;;7.80;99.90;;;;;;5016595;28;20072;-75
2022/01/02 08:00:26;;;;;;;60.67;33.90;;;7.80;99.90;;;;;;5020235;28;20037;-75
2022/01/02 08:02:52;;;;;;;57.25;30.60;;;7.80;99.90;;;;;;5018598;28;20026;-75
2022/01/02 08:05:18;;;;;;;53.17;27.63;;;7.80;99.90;;;;;;5020094;28;20113;-76
2022/01/02 08:07:44;;;;;;;57.33;31.98;;;7.90;99.90;;;;;;5006155;28;20105;-76
2022/01/02 08:10:10;;;;;;;54.97;32.25;;;7.90;99.90;;;;;;5007397;28;20073;-75
2022/01/02 08:12:36;;;;;;;73.13;40.22;;;7.90;99.90;;;;;;5011606;28;20097;-76
2022/01/02 08:15:02;;;;;;;75.45;40.85;;;7.90;99.90;;;;;;5009243;28;20481;-76
2022/01/02 08:17:28;;;;;;;74.20;42.38;;;7.90;99.90;;;;;;5017172;28;20375;-76
2022/01/02 08:19:53;;;;;;;101.30;61.13;;;7.90;99.90;;;;;;5017180;28;20030;-76
2022/01/02 08:22:20;;;;;;;64.55;34.25;;;7.90;99.90;;;;;;5032351;28;20049;-76
2022/01/02 08:24:46;;;;;;;72.88;36.75;;;7.90;99.90;;;;;;5010376;28;20027;-75
2022/01/02 08:27:11;;;;;;;58.55;32.45;;;7.90;99.90;;;;;;5007167;28;20530;-75
2022/01/02 08:29:37;;;;;;;70.80;38.03;;;8.00;99.90;;;;;;5005670;28;20037;-75
2022/01/02 08:32:03;;;;;;;68.68;41.08;;;8.00;99.90;;;;;;5005854;28;20513;-76
2022/01/02 08:34:29;;;;;;;70.88;39.95;;;8.00;99.90;;;;;;5004913;28;20490;-76
2022/01/02 08:36:55;;;;;;;56.72;31.33;;;8.00;99.90;;;;;;5013041;28;20050;-75
2022/01/02 08:39:21;;;;;;;152.55;85.75;;;8.10;99.90;;;;;;5009437;28;20038;-76
2022/01/02 08:41:47;;;;;;;88.53;49.30;;;8.10;99.90;;;;;;5009875;28;20030;-76
2022/01/02 08:44:12;;;;;;;56.20;31.98;;;8.10;99.90;;;;;;5009154;28;20033;-75
2022/01/02 08:46:38;;;;;;;91.70;55.15;;;8.10;99.90;;;;;;5014754;28;20025;-75
2022/01/02 08:49:04;;;;;;;76.68;45.38;;;8.10;99.90;;;;;;5010565;28;20033;-76
2022/01/02 08:51:30;;;;;;;58.08;33.78;;;8.10;99.90;;;;;;5000941;28;20061;-76
2022/01/02 08:53:56;;;;;;;151.35;91.18;;;8.10;99.90;;;;;;5011777;28;20033;-75
2022/01/02 08:56:23;;;;;;;63.15;35.63;;;8.10;99.90;;;;;;5007702;28;20509;-76
2022/01/02 08:58:48;;;;;;;115.30;69.13;;;8.10;99.90;;;;;;5007095;28;20030;-76
2022/01/02 09:01:14;;;;;;;162.13;95.13;;;8.10;99.90;;;;;;5012434;28;20513;-76
2022/01/02 09:03:40;;;;;;;60.70;31.08;;;8.10;99.90;;;;;;5006828;28;20409;-76
2022/01/02 09:06:06;;;;;;;55.58;32.83;;;8.10;99.90;;;;;;5013417;28;20018;-75
2022/01/02 09:08:32;;;;;;;48.92;29.77;;;8.20;99.90;;;;;;5007684;28;20057;-76
2022/01/02 09:10:57;;;;;;;59.88;32.17;;;8.20;99.90;;;;;;5013661;28;20026;-76
2022/01/02 09:13:26;;;;;;;53.28;29.27;;;8.20;99.90;;;;;;5016787;28;20042;-76
2022/01/02 09:15:52;;;;;;;50.78;29.70;;;8.30;99.90;;;;;;5050098;28;20100;-76
2022/01/02 09:18:18;;;;;;;52.72;28.60;;;8.40;99.90;;;;;;5017994;28;20049;-76
2022/01/02 09:20:44;;;;;;;50.25;27.38;;;8.60;99.90;;;;;;5018007;28;20502;-76
2022/01/02 09:23:10;;;;;;;53.80;31.23;;;8.60;99.90;;;;;;5050073;28;20375;-76
2022/01/02 09:25:36;;;;;;;47.10;26.70;;;8.80;99.90;;;;;;5017424;28;20478;-76
2022/01/02 09:28:02;;;;;;;44.25;25.63;;;8.80;99.90;;;;;;5034295;28;20092;-76
2022/01/02 09:30:28;;;;;;;34.78;22.88;;;9.00;99.90;;;;;;5028128;28;20069;-77
2022/01/02 09:32:55;;;;;;;40.83;25.25;;;9.00;99.90;;;;;;5042986;28;20543;-77
2022/01/02 09:35:20;;;;;;;40.67;25.85;;;9.00;99.90;;;;;;4997751;28;20030;-77
2022/01/02 09:37:46;;;;;;;36.35;23.33;;;9.10;99.90;;;;;;5050042;28;20601;-76
2022/01/02 09:40:12;;;;;;;64.15;37.75;;;9.20;99.90;;;;;;5017425;28;20485;-77
2022/01/02 09:42:39;;;;;;;40.05;24.70;;;9.30;99.90;;;;;;5049329;28;20032;-76
2022/01/02 09:45:06;;;;;;;98.47;48.45;;;9.30;99.90;;;;;;5047819;28;20548;-76
2022/01/02 09:47:32;;;;;;;44.35;27.35;;;9.40;99.90;;;;;;5016788;28;20006;-76
2022/01/02 09:50:04;;;;;;;53.15;30.13;;;9.40;99.90;;;;;;5049921;28;20486;-76
2022/01/02 09:52:30;;;;;;;107.93;53.25;;;9.40;99.90;;;;;;5018098;28;20105;-76
2022/01/02 09:54:56;;;;;;;121.15;65.40;;;9.40;99.90;;;;;;5016300;28;20057;-76
2022/01/02 09:57:21;;;;;;;36.50;23.95;;;9.50;99.90;;;;;;5017826;28;20501;-76
2022/01/02 09:59:47;;;;;;;48.78;29.45;;;9.50;99.90;;;;;;5016568;28;20116;-76
2022/01/02 10:02:13;;;;;;;34.95;22.88;;;9.50;99.90;;;;;;5015771;28;20474;-76
2022/01/02 10:04:43;;;;;;;41.22;28.35;;;9.40;99.90;;;;;;5049614;28;20030;-77
2022/01/02 10:07:28;;;;;;;35.83;22.83;;;9.40;99.90;;;;;;5017855;28;20026;-77
2022/01/02 10:09:54;;;;;;;39.05;24.42;;;9.40;99.90;;;;;;5016462;28;20042;-76
2022/01/02 10:12:28;;;;;;;39.15;24.10;;;9.30;99.90;;;;;;5017612;28;20026;-76
2022/01/02 10:15:14;;;;;;;39.67;28.23;;;9.30;99.90;;;;;;5017796;28;20044;-76
2022/01/02 10:18:24;;;;;;;39.60;23.58;;;9.30;99.90;;;;;;5017367;28;20025;-76
2022/01/02 10:20:50;;;;;;;49.90;32.40;;;9.40;99.90;;;;;;5015124;28;20117;-77
2022/01/02 10:23:21;;;;;;;43.22;26.67;;;9.40;99.90;;;;;;5003720;28;20121;-76
2022/01/02 10:25:47;;;;;;;74.07;46.65;;;9.40;99.90;;;;;;5016397;28;20451;-76
2022/01/02 10:28:27;;;;;;;37.33;24.33;;;9.40;99.90;;;;;;5013295;28;20028;-76
2022/01/02 10:31:15;;;;;;;42.25;26.23;;;9.50;99.90;;;;;;5005530;28;20540;-76
2022/01/02 10:33:59;;;;;;;35.85;22.92;;;9.60;99.90;;;;;;5017014;28;20061;-76
2022/01/02 10:36:30;;;;;;;41.75;25.75;;;9.60;99.90;;;;;;5016077;28;20026;-77
2022/01/02 10:38:59;;;;;;;41.78;26.27;;;9.70;99.90;;;;;;5017290;28;20034;-77
2022/01/02 10:41:33;;;;;;;35.97;22.38;;;9.80;99.90;;;;;;5015647;28;20026;-77
2022/01/02 10:44:26;;;;;;;38.88;22.77;;;9.90;99.90;;;;;;5017607;28;20038;-76
2022/01/02 10:47:11;;;;;;;44.92;23.80;;;10.10;99.90;;;;;;5013571;28;20034;-77
2022/01/02 10:49:49;;;;;;;61.55;41.85;;;10.20;99.90;;;;;;5016962;28;20452;-77
2022/01/02 10:52:24;;;;;;;40.00;24.00;;;10.30;99.90;;;;;;5016750;28;20030;-77
2022/01/02 10:54:51;;;;;;;34.83;22.52;;;10.40;99.90;;;;;;5016640;28;20026;-75
2022/01/02 10:57:17;;;;;;;42.33;29.45;;;10.50;99.90;;;;;;5016808;28;20018;-75
2022/01/02 10:59:44;;;;;;;31.13;20.85;;;10.60;99.90;;;;;;5015974;28;20036;-76
2022/01/02 11:02:15;;;;;;;31.95;19.50;;;10.60;99.90;;;;;;5017007;28;20033;-76
2022/01/02 11:05:03;;;;;;;29.30;19.08;;;10.70;99.90;;;;;;5017292;28;20472;-75
2022/01/02 11:07:42;;;;;;;29.08;19.92;;;10.90;99.90;;;;;;5016872;28;20482;-75
2022/01/02 11:10:13;;;;;;;29.70;18.52;;;11.10;99.90;;;;;;5016789;28;20060;-74
2022/01/02 11:12:39;;;;;;;;;;;11.30;99.90;;;;;;5010908;28;20030;-74
2022/01/02 11:15:19;;;;;;;29.95;16.63;;;11.50;99.90;;;;;;5012811;28;19928;-74
2022/01/02 11:17:45;;;;;;;36.90;24.40;;;11.70;99.90;;;;;;5021032;28;20030;-75
2022/01/02 11:20:22;;;;;;;25.63;15.68;;;12.00;99.90;;;;;;5020807;28;20030;-74
2022/01/02 11:23:20;;;;;;;31.67;21.40;;;12.20;99.90;;;;;;5019550;28;20462;-74
2022/01/02 11:25:59;;;;;;;23.67;15.45;;;12.30;99.90;;;;;;5020701;28;20029;-74
2022/01/02 11:28:45;;;;;;;20.08;13.68;;;12.30;99.90;;;;;;5051933;28;20022;-73
2022/01/02 11:31:25;;;;;;;22.50;14.98;;;12.40;99.90;;;;;;5020378;28;20113;-74
2022/01/02 11:33:51;;;;;;;18.92;13.02;;;12.40;99.90;;;;;;5020361;28;20030;-73
2022/01/02 11:36:35;;;;;;;19.88;13.45;;;12.50;99.90;;;;;;5019968;28;20034;-74
2022/01/02 11:39:05;;;;;;;19.88;13.18;;;12.50;99.90;;;;;;5035609;28;20037;-74
2022/01/02 11:41:50;;;;;;;16.83;12.13;;;12.60;99.90;;;;;;5018083;28;20037;-73
2022/01/02 11:44:48;;;;;;;19.75;13.15;;;12.70;99.90;;;;;;5011391;28;20414;-74
2022/01/02 11:47:37;;;;;;;22.10;12.95;;;12.90;99.90;;;;;;5019492;28;20072;-74
2022/01/02 11:50:03;;;;;;;17.10;11.43;;;13.10;99.90;;;;;;5020010;28;20065;-75
2022/01/02 11:52:31;;;;;;;16.75;12.45;;;13.20;99.90;;;;;;5018974;28;20022;-76
2022/01/02 11:54:57;;;;;;;17.67;11.45;;;13.40;99.90;;;;;;5020218;28;20406;-74
2022/01/02 11:57:23;;;;;;;17.63;11.38;;;13.60;99.90;;;;;;5020003;28;20049;-73
2022/01/02 11:59:49;;;;;;;17.38;11.32;;;13.70;99.90;;;;;;5020121;28;20030;-73
2022/01/02 12:02:26;;;;;;;51.97;33.13;;;13.70;99.90;;;;;;5019844;28;20041;-75
2022/01/02 12:05:02;;;;;;;13.70;10.10;;;13.70;99.90;;;;;;5020180;28;20054;-76
2022/01/02 12:07:33;;;;;;;17.52;11.60;;;13.60;99.90;;;;;;5019879;28;20018;-77
2022/01/02 12:10:14;;;;;;;15.65;11.07;;;13.70;99.90;;;;;;5020003;28;20063;-73
2022/01/02 12:12:59;;;;;;;14.48;9.63;;;13.60;99.90;;;;;;5011476;28;20030;-73
2022/01/02 12:15:31;;;;;;;15.55;10.13;;;13.60;99.90;;;;;;5019807;28;20589;-74
2022/01/02 12:18:31;;;;;;;15.70;9.88;;;13.60;99.90;;;;;;5019679;28;20022;-75
2022/01/02 12:21:08;;;;;;;11.88;8.98;;;13.50;99.90;;;;;;5019695;28;20037;-76
2022/01/02 12:23:36;;;;;;;12.50;8.80;;;13.50;99.90;;;;;;5018096;28;20113;-73
2022/01/02 12:26:13;;;;;;;10.27;7.22;;;13.50;99.90;;;;;;5017002;28;20083;-75
2022/01/02 12:28:40;;;;;;;16.77;8.25;;;13.60;99.90;;;;;;5019711;28;20659;-76
2022/01/02 12:31:07;;;;;;;8.32;6.07;;;13.60;99.90;;;;;;5019766;28;20478;-76
2022/01/02 12:33:35;;;;;;;9.38;6.70;;;13.60;99.90;;;;;;5019222;28;20026;-74
2022/01/02 12:36:22;;;;;;;8.07;5.78;;;13.70;99.90;;;;;;5018241;28;20029;-76
2022/01/02 12:38:51;;;;;;;8.10;5.90;;;13.70;99.90;;;;;;5019491;28;20033;-74
2022/01/02 12:41:20;;;;;;;10.05;5.70;;;13.90;99.90;;;;;;5014846;28;20127;-74
2022/01/02 12:44:00;;;;;;;8.02;5.35;;;13.90;99.90;;;;;;5019526;28;20022;-74
2022/01/02 12:46:48;;;;;;;7.30;4.95;;;14.00;99.90;;;;;;5019274;28;20026;-76
2022/01/02 12:49:28;;;;;;;6.95;5.15;;;14.10;99.90;;;;;;5031541;28;20027;-76
2022/01/02 12:52:04;;;;;;;6.88;5.35;;;14.20;99.90;;;;;;5037936;28;20109;-76